Blue Mound, Illinois
Current Conditions -  °F | °C
As of 12:35 PM on Wednesday 26 Nov 2014 (Local Time) from KTAZ Reporting Station
Overcast Overcast  
Wind Chill: 25°   Ceiling: 4400
Heat Index: 32°   Visibility: 10mi
Dew Point: 28°   Wind: 8mph
Humidity: 87%   Direction: 110°ESE
Pressure: 30.02"   Gusts: NA
Location:  39.7°N, 89.12°W
Report Text: KTAZ 261835Z AUTO 11007KT 10SM BKN044 OVC060 00/M02 A3002 RMK AO2
Loading
Personal Weather Stations






























Interactive Weather Map New forecast layout! Learn more

10-Day Weather Forecast

Advertisements
Track Severe Weather on mobile